sensor_id;sensor_type;location;lat;lon;timestamp;temperature;humidity
25918;DHT22;13899;51.174;4.456;2022-08-03T00:01:36;23.20;99.90
25918;DHT22;13899;51.174;4.456;2022-08-03T00:04:03;23.20;99.90
25918;DHT22;13899;51.174;4.456;2022-08-03T00:06:30;23.40;99.90
25918;DHT22;13899;51.174;4.456;2022-08-03T00:08:56;23.20;99.90
25918;DHT22;13899;51.174;4.456;2022-08-03T00:11:21;22.60;99.90
25918;DHT22;13899;51.174;4.456;2022-08-03T00:13:48;22.40;99.90
25918;DHT22;13899;51.174;4.456;2022-08-03T00:16:15;22.40;99.90
25918;DHT22;13899;51.174;4.456;2022-08-03T00:18:41;22.40;99.90
25918;DHT22;13899;51.174;4.456;2022-08-03T00:21:07;22.60;99.90
25918;DHT22;13899;51.174;4.456;2022-08-03T00:23:33;22.50;99.90
25918;DHT22;13899;51.174;4.456;2022-08-03T00:25:59;22.70;99.90
25918;DHT22;13899;51.174;4.456;2022-08-03T00:28:25;23.00;99.90
25918;DHT22;13899;51.174;4.456;2022-08-03T00:30:50;23.00;99.90
25918;DHT22;13899;51.174;4.456;2022-08-03T00:33:16;23.10;99.90
25918;DHT22;13899;51.174;4.456;2022-08-03T00:35:41;23.00;99.90
25918;DHT22;13899;51.174;4.456;2022-08-03T00:38:07;22.40;99.90
25918;DHT22;13899;51.174;4.456;2022-08-03T00:40:33;22.50;99.90
25918;DHT22;13899;51.174;4.456;2022-08-03T00:43:01;22.80;99.90
25918;DHT22;13899;51.174;4.456;2022-08-03T00:45:38;22.80;99.90
25918;DHT22;13899;51.174;4.456;2022-08-03T00:48:08;22.80;99.90
25918;DHT22;13899;51.174;4.456;2022-08-03T00:50:38;23.00;99.90
25918;DHT22;13899;51.174;4.456;2022-08-03T00:53:06;22.60;99.90
25918;DHT22;13899;51.174;4.456;2022-08-03T00:55:34;22.10;99.90
25918;DHT22;13899;51.174;4.456;2022-08-03T00:58:08;22.00;99.90
25918;DHT22;13899;51.174;4.456;2022-08-03T01:00:37;22.30;99.90
25918;DHT22;13899;51.174;4.456;2022-08-03T01:03:04;22.60;99.90
25918;DHT22;13899;51.174;4.456;2022-08-03T01:05:31;22.10;99.90
25918;DHT22;13899;51.174;4.456;2022-08-03T01:13:47;22.60;99.90
25918;DHT22;13899;51.174;4.456;2022-08-03T01:21:33;22.30;99.90
25918;DHT22;13899;51.174;4.456;2022-08-03T01:24:03;22.00;99.90
25918;DHT22;13899;51.174;4.456;2022-08-03T01:32:14;22.10;99.90
25918;DHT22;13899;51.174;4.456;2022-08-03T01:34:46;22.00;99.90
25918;DHT22;13899;51.174;4.456;2022-08-03T01:37:21;21.60;99.90
25918;DHT22;13899;51.174;4.456;2022-08-03T01:39:51;21.40;99.90
25918;DHT22;13899;51.174;4.456;2022-08-03T01:42:20;21.30;99.90
25918;DHT22;13899;51.174;4.456;2022-08-03T01:44:46;21.30;99.90
25918;DHT22;13899;51.174;4.456;2022-08-03T01:47:14;21.40;99.90
25918;DHT22;13899;51.174;4.456;2022-08-03T01:49:43;21.60;99.90
25918;DHT22;13899;51.174;4.456;2022-08-03T01:52:10;21.60;99.90
25918;DHT22;13899;51.174;4.456;2022-08-03T01:54:41;21.80;99.90
25918;DHT22;13899;51.174;4.456;2022-08-03T01:57:11;21.70;99.90
25918;DHT22;13899;51.174;4.456;2022-08-03T01:59:38;22.00;99.90
25918;DHT22;13899;51.174;4.456;2022-08-03T02:02:05;22.10;99.90
25918;DHT22;13899;51.174;4.456;2022-08-03T02:04:32;22.20;99.90
25918;DHT22;13899;51.174;4.456;2022-08-03T02:07:00;22.20;99.90
25918;DHT22;13899;51.174;4.456;2022-08-03T02:09:27;22.30;99.90
25918;DHT22;13899;51.174;4.456;2022-08-03T02:11:54;21.70;99.90
25918;DHT22;13899;51.174;4.456;2022-08-03T02:14:22;21.50;99.90
25918;DHT22;13899;51.174;4.456;2022-08-03T02:16:50;21.20;99.90
25918;DHT22;13899;51.174;4.456;2022-08-03T02:19:17;21.50;99.90
25918;DHT22;13899;51.174;4.456;2022-08-03T02:21:45;21.30;99.90
25918;DHT22;13899;51.174;4.456;2022-08-03T02:24:11;21.40;99.90
25918;DHT22;13899;51.174;4.456;2022-08-03T02:26:38;21.30;99.90
25918;DHT22;13899;51.174;4.456;2022-08-03T02:29:11;21.50;99.90
25918;DHT22;13899;51.174;4.456;2022-08-03T02:31:39;21.30;99.90
25918;DHT22;13899;51.174;4.456;2022-08-03T02:34:09;21.10;99.90
25918;DHT22;13899;51.174;4.456;2022-08-03T02:36:38;21.20;99.90
25918;DHT22;13899;51.174;4.456;2022-08-03T02:39:04;21.40;99.90
25918;DHT22;13899;51.174;4.456;2022-08-03T02:41:37;21.30;99.90
25918;DHT22;13899;51.174;4.456;2022-08-03T02:44:10;21.30;99.90
25918;DHT22;13899;51.174;4.456;2022-08-03T02:46:42;21.30;99.90
25918;DHT22;13899;51.174;4.456;2022-08-03T02:49:11;21.40;99.90
25918;DHT22;13899;51.174;4.456;2022-08-03T02:51:38;21.40;99.90
25918;DHT22;13899;51.174;4.456;2022-08-03T02:54:06;21.50;99.90
25918;DHT22;13899;51.174;4.456;2022-08-03T02:56:34;20.90;99.90
25918;DHT22;13899;51.174;4.456;2022-08-03T02:59:02;20.50;99.90
25918;DHT22;13899;51.174;4.456;2022-08-03T03:01:29;20.50;99.90
25918;DHT22;13899;51.174;4.456;2022-08-03T03:03:56;20.50;99.90
25918;DHT22;13899;51.174;4.456;2022-08-03T03:06:25;20.80;99.90
25918;DHT22;13899;51.174;4.456;2022-08-03T03:08:51;21.00;99.90
25918;DHT22;13899;51.174;4.456;2022-08-03T03:11:19;21.00;99.90
25918;DHT22;13899;51.174;4.456;2022-08-03T03:13:46;20.90;99.90
25918;DHT22;13899;51.174;4.456;2022-08-03T03:16:14;20.80;99.90
25918;DHT22;13899;51.174;4.456;2022-08-03T03:18:43;20.80;99.90
25918;DHT22;13899;51.174;4.456;2022-08-03T03:21:10;21.00;99.90
25918;DHT22;13899;51.174;4.456;2022-08-03T03:23:38;20.60;99.90
25918;DHT22;13899;51.174;4.456;2022-08-03T03:26:04;20.60;99.90
25918;DHT22;13899;51.174;4.456;2022-08-03T03:28:31;20.90;99.90
25918;DHT22;13899;51.174;4.456;2022-08-03T03:30:57;21.00;99.90
25918;DHT22;13899;51.174;4.456;2022-08-03T03:33:23;21.20;99.90
25918;DHT22;13899;51.174;4.456;2022-08-03T03:35:49;21.00;99.90
25918;DHT22;13899;51.174;4.456;2022-08-03T03:38:16;21.00;99.90
25918;DHT22;13899;51.174;4.456;2022-08-03T03:40:42;20.90;99.90
25918;DHT22;13899;51.174;4.456;2022-08-03T03:43:09;20.80;99.90
25918;DHT22;13899;51.174;4.456;2022-08-03T03:45:35;20.30;99.90
25918;DHT22;13899;51.174;4.456;2022-08-03T03:48:03;20.20;99.90
25918;DHT22;13899;51.174;4.456;2022-08-03T03:50:30;20.00;99.90
25918;DHT22;13899;51.174;4.456;2022-08-03T03:52:57;19.80;99.90
25918;DHT22;13899;51.174;4.456;2022-08-03T03:55:23;19.80;99.90
25918;DHT22;13899;51.174;4.456;2022-08-03T03:57:49;19.60;99.90
25918;DHT22;13899;51.174;4.456;2022-08-03T04:00:17;19.90;99.90
25918;DHT22;13899;51.174;4.456;2022-08-03T04:02:44;20.20;99.90
25918;DHT22;13899;51.174;4.456;2022-08-03T04:05:11;20.30;99.90
25918;DHT22;13899;51.174;4.456;2022-08-03T04:11:12;20.20;99.90
25918;DHT22;13899;51.174;4.456;2022-08-03T04:17:01;20.40;99.90
25918;DHT22;13899;51.174;4.456;2022-08-03T04:19:41;20.50;99.90
25918;DHT22;13899;51.174;4.456;2022-08-03T04:22:13;20.60;99.90
25918;DHT22;13899;51.174;4.456;2022-08-03T04:24:50;20.60;99.90
25918;DHT22;13899;51.174;4.456;2022-08-03T04:27:22;20.40;99.90
25918;DHT22;13899;51.174;4.456;2022-08-03T04:29:52;20.30;99.90
25918;DHT22;13899;51.174;4.456;2022-08-03T04:32:22;20.20;99.90
25918;DHT22;13899;51.174;4.456;2022-08-03T04:34:52;19.80;99.90
25918;DHT22;13899;51.174;4.456;2022-08-03T04:37:29;19.80;99.90
25918;DHT22;13899;51.174;4.456;2022-08-03T04:39:58;19.90;99.90
25918;DHT22;13899;51.174;4.456;2022-08-03T04:42:26;19.90;99.90
25918;DHT22;13899;51.174;4.456;2022-08-03T04:44:54;19.90;99.90
25918;DHT22;13899;51.174;4.456;2022-08-03T04:47:20;19.60;99.90
25918;DHT22;13899;51.174;4.456;2022-08-03T04:49:46;19.70;99.90
25918;DHT22;13899;51.174;4.456;2022-08-03T04:52:13;19.90;99.90
25918;DHT22;13899;51.174;4.456;2022-08-03T04:54:42;20.20;99.90
25918;DHT22;13899;51.174;4.456;2022-08-03T04:57:12;20.40;99.90
25918;DHT22;13899;51.174;4.456;2022-08-03T04:59:38;20.60;99.90
25918;DHT22;13899;51.174;4.456;2022-08-03T05:02:03;20.30;99.90
25918;DHT22;13899;51.174;4.456;2022-08-03T05:04:29;20.40;99.90
25918;DHT22;13899;51.174;4.456;2022-08-03T05:06:55;20.20;99.90
25918;DHT22;13899;51.174;4.456;2022-08-03T05:09:21;20.30;99.90
25918;DHT22;13899;51.174;4.456;2022-08-03T05:11:47;20.20;99.90
25918;DHT22;13899;51.174;4.456;2022-08-03T05:14:13;20.30;99.90
25918;DHT22;13899;51.174;4.456;2022-08-03T05:16:38;20.50;99.90
25918;DHT22;13899;51.174;4.456;2022-08-03T05:19:04;20.60;99.90
25918;DHT22;13899;51.174;4.456;2022-08-03T05:21:30;20.40;99.90
25918;DHT22;13899;51.174;4.456;2022-08-03T05:23:55;20.40;99.90
25918;DHT22;13899;51.174;4.456;2022-08-03T05:26:21;20.30;99.90
25918;DHT22;13899;51.174;4.456;2022-08-03T05:28:46;20.40;99.90
25918;DHT22;13899;51.174;4.456;2022-08-03T05:31:12;20.20;99.90
25918;DHT22;13899;51.174;4.456;2022-08-03T05:33:38;20.20;99.90
25918;DHT22;13899;51.174;4.456;2022-08-03T05:36:04;20.20;99.90
25918;DHT22;13899;51.174;4.456;2022-08-03T05:38:31;20.10;99.90
25918;DHT22;13899;51.174;4.456;2022-08-03T05:40:57;20.10;99.90
25918;DHT22;13899;51.174;4.456;2022-08-03T05:43:23;20.20;99.90
25918;DHT22;13899;51.174;4.456;2022-08-03T05:45:48;20.30;99.90
25918;DHT22;13899;51.174;4.456;2022-08-03T05:48:14;20.20;99.90
25918;DHT22;13899;51.174;4.456;2022-08-03T05:50:40;20.40;99.90
25918;DHT22;13899;51.174;4.456;2022-08-03T05:53:05;20.60;99.90
25918;DHT22;13899;51.174;4.456;2022-08-03T05:55:31;20.70;99.90
25918;DHT22;13899;51.174;4.456;2022-08-03T05:57:58;20.80;99.90
25918;DHT22;13899;51.174;4.456;2022-08-03T06:00:23;20.80;99.90
25918;DHT22;13899;51.174;4.456;2022-08-03T06:02:49;20.70;99.90
25918;DHT22;13899;51.174;4.456;2022-08-03T06:05:15;20.70;99.90
25918;DHT22;13899;51.174;4.456;2022-08-03T06:07:41;20.90;99.90
25918;DHT22;13899;51.174;4.456;2022-08-03T06:10:07;20.70;99.90
25918;DHT22;13899;51.174;4.456;2022-08-03T06:12:33;20.70;99.90
25918;DHT22;13899;51.174;4.456;2022-08-03T06:15:01;20.70;99.90
25918;DHT22;13899;51.174;4.456;2022-08-03T06:17:27;20.80;99.90
25918;DHT22;13899;51.174;4.456;2022-08-03T06:19:52;20.80;99.90
25918;DHT22;13899;51.174;4.456;2022-08-03T06:22:19;20.90;99.90
25918;DHT22;13899;51.174;4.456;2022-08-03T06:24:45;21.10;99.90
25918;DHT22;13899;51.174;4.456;2022-08-03T06:27:10;21.30;99.90
25918;DHT22;13899;51.174;4.456;2022-08-03T06:29:36;21.50;99.90
25918;DHT22;13899;51.174;4.456;2022-08-03T06:32:02;21.40;99.90
25918;DHT22;13899;51.174;4.456;2022-08-03T06:34:28;21.60;99.90
25918;DHT22;13899;51.174;4.456;2022-08-03T06:36:53;21.80;99.90
25918;DHT22;13899;51.174;4.456;2022-08-03T06:39:20;21.90;99.90
25918;DHT22;13899;51.174;4.456;2022-08-03T06:41:46;21.80;99.90
25918;DHT22;13899;51.174;4.456;2022-08-03T06:44:11;21.80;99.90
25918;DHT22;13899;51.174;4.456;2022-08-03T06:46:37;21.90;99.90
25918;DHT22;13899;51.174;4.456;2022-08-03T06:49:03;22.00;99.90
25918;DHT22;13899;51.174;4.456;2022-08-03T06:51:29;22.10;99.90
25918;DHT22;13899;51.174;4.456;2022-08-03T06:53:55;22.00;99.90
25918;DHT22;13899;51.174;4.456;2022-08-03T06:56:21;22.00;99.90
25918;DHT22;13899;51.174;4.456;2022-08-03T06:58:46;22.10;99.90
25918;DHT22;13899;51.174;4.456;2022-08-03T07:01:13;22.20;99.90
25918;DHT22;13899;51.174;4.456;2022-08-03T07:03:38;22.40;99.90
25918;DHT22;13899;51.174;4.456;2022-08-03T07:06:05;22.40;99.90
25918;DHT22;13899;51.174;4.456;2022-08-03T07:08:31;22.50;99.90
25918;DHT22;13899;51.174;4.456;2022-08-03T07:10:56;22.50;99.90
25918;DHT22;13899;51.174;4.456;2022-08-03T07:13:22;22.40;99.90
25918;DHT22;13899;51.174;4.456;2022-08-03T07:15:47;22.40;99.90
25918;DHT22;13899;51.174;4.456;2022-08-03T07:18:13;22.50;99.90
25918;DHT22;13899;51.174;4.456;2022-08-03T07:20:39;22.40;99.90
25918;DHT22;13899;51.174;4.456;2022-08-03T07:23:05;22.50;99.90
25918;DHT22;13899;51.174;4.456;2022-08-03T07:25:30;22.70;99.90
25918;DHT22;13899;51.174;4.456;2022-08-03T07:27:56;22.90;99.90
25918;DHT22;13899;51.174;4.456;2022-08-03T07:30:22;23.10;99.90
25918;DHT22;13899;51.174;4.456;2022-08-03T07:32:48;23.50;99.90
25918;DHT22;13899;51.174;4.456;2022-08-03T07:35:13;23.70;99.90
25918;DHT22;13899;51.174;4.456;2022-08-03T07:37:39;23.90;99.90
25918;DHT22;13899;51.174;4.456;2022-08-03T07:40:05;23.80;99.90
25918;DHT22;13899;51.174;4.456;2022-08-03T07:42:31;23.90;99.90
25918;DHT22;13899;51.174;4.456;2022-08-03T07:44:57;23.80;99.90
25918;DHT22;13899;51.174;4.456;2022-08-03T07:47:27;23.90;99.90
25918;DHT22;13899;51.174;4.456;2022-08-03T07:49:52;23.80;99.90
25918;DHT22;13899;51.174;4.456;2022-08-03T07:52:18;23.90;99.90
25918;DHT22;13899;51.174;4.456;2022-08-03T07:55:07;23.90;99.90
25918;DHT22;13899;51.174;4.456;2022-08-03T07:57:33;24.00;99.90
25918;DHT22;13899;51.174;4.456;2022-08-03T07:59:59;24.20;99.90
25918;DHT22;13899;51.174;4.456;2022-08-03T08:02:24;24.50;99.90
25918;DHT22;13899;51.174;4.456;2022-08-03T08:04:50;24.50;99.90
25918;DHT22;13899;51.174;4.456;2022-08-03T08:07:16;24.70;99.90
25918;DHT22;13899;51.174;4.456;2022-08-03T08:09:42;24.60;99.90
25918;DHT22;13899;51.174;4.456;2022-08-03T08:12:08;24.40;99.90
25918;DHT22;13899;51.174;4.456;2022-08-03T08:14:37;24.30;99.90
25918;DHT22;13899;51.174;4.456;2022-08-03T08:17:02;24.40;99.90
25918;DHT22;13899;51.174;4.456;2022-08-03T08:19:28;24.50;99.90
25918;DHT22;13899;51.174;4.456;2022-08-03T08:21:55;24.70;99.90
25918;DHT22;13899;51.174;4.456;2022-08-03T08:24:20;24.70;99.90
25918;DHT22;13899;51.174;4.456;2022-08-03T08:26:46;24.80;99.90
25918;DHT22;13899;51.174;4.456;2022-08-03T08:29:11;25.10;99.90
25918;DHT22;13899;51.174;4.456;2022-08-03T08:31:38;25.10;99.90
25918;DHT22;13899;51.174;4.456;2022-08-03T08:34:04;25.00;99.90
25918;DHT22;13899;51.174;4.456;2022-08-03T08:36:32;25.00;99.90
25918;DHT22;13899;51.174;4.456;2022-08-03T08:38:58;25.00;99.90
25918;DHT22;13899;51.174;4.456;2022-08-03T08:41:24;24.90;99.90
25918;DHT22;13899;51.174;4.456;2022-08-03T08:43:50;25.00;99.90
25918;DHT22;13899;51.174;4.456;2022-08-03T08:46:19;24.80;99.90
25918;DHT22;13899;51.174;4.456;2022-08-03T08:48:46;24.90;99.90
25918;DHT22;13899;51.174;4.456;2022-08-03T08:51:13;25.00;99.90
25918;DHT22;13899;51.174;4.456;2022-08-03T08:53:42;25.20;99.90
25918;DHT22;13899;51.174;4.456;2022-08-03T08:56:12;25.40;99.90
25918;DHT22;13899;51.174;4.456;2022-08-03T08:58:45;25.50;99.90
25918;DHT22;13899;51.174;4.456;2022-08-03T09:01:11;25.50;99.90
25918;DHT22;13899;51.174;4.456;2022-08-03T09:03:38;25.70;99.90
25918;DHT22;13899;51.174;4.456;2022-08-03T09:06:04;26.20;99.90
25918;DHT22;13899;51.174;4.456;2022-08-03T09:08:31;26.20;99.90
25918;DHT22;13899;51.174;4.456;2022-08-03T09:10:57;26.20;99.90
25918;DHT22;13899;51.174;4.456;2022-08-03T09:13:24;26.50;99.90
25918;DHT22;13899;51.174;4.456;2022-08-03T09:18:36;26.70;99.90
25918;DHT22;13899;51.174;4.456;2022-08-03T09:21:16;26.90;99.90
25918;DHT22;13899;51.174;4.456;2022-08-03T09:23:53;26.80;99.90
25918;DHT22;13899;51.174;4.456;2022-08-03T09:26:25;26.90;99.90
25918;DHT22;13899;51.174;4.456;2022-08-03T09:31:35;26.70;99.90
25918;DHT22;13899;51.174;4.456;2022-08-03T09:34:10;26.90;99.90
25918;DHT22;13899;51.174;4.456;2022-08-03T09:36:39;27.00;99.90
25918;DHT22;13899;51.174;4.456;2022-08-03T09:39:10;27.00;99.90
25918;DHT22;13899;51.174;4.456;2022-08-03T09:41:42;27.00;99.90
25918;DHT22;13899;51.174;4.456;2022-08-03T09:44:10;27.10;99.90
25918;DHT22;13899;51.174;4.456;2022-08-03T09:46:53;27.20;99.90
25918;DHT22;13899;51.174;4.456;2022-08-03T09:49:19;27.40;99.90
25918;DHT22;13899;51.174;4.456;2022-08-03T09:51:45;28.10;99.90
25918;DHT22;13899;51.174;4.456;2022-08-03T09:54:11;29.10;99.90
25918;DHT22;13899;51.174;4.456;2022-08-03T09:56:41;29.10;99.90
25918;DHT22;13899;51.174;4.456;2022-08-03T09:59:08;29.30;99.90
25918;DHT22;13899;51.174;4.456;2022-08-03T10:01:33;29.80;99.90
25918;DHT22;13899;51.174;4.456;2022-08-03T10:04:00;30.20;99.90
25918;DHT22;13899;51.174;4.456;2022-08-03T10:06:25;29.50;99.90
25918;DHT22;13899;51.174;4.456;2022-08-03T10:09:11;30.50;99.90
25918;DHT22;13899;51.174;4.456;2022-08-03T10:11:38;29.90;99.90
25918;DHT22;13899;51.174;4.456;2022-08-03T10:14:05;29.70;99.90
25918;DHT22;13899;51.174;4.456;2022-08-03T10:16:38;30.30;99.90
25918;DHT22;13899;51.174;4.456;2022-08-03T10:19:06;31.90;99.90
25918;DHT22;13899;51.174;4.456;2022-08-03T10:21:34;33.30;99.90
25918;DHT22;13899;51.174;4.456;2022-08-03T10:24:06;34.70;99.90
25918;DHT22;13899;51.174;4.456;2022-08-03T10:26:35;33.90;99.90
25918;DHT22;13899;51.174;4.456;2022-08-03T10:29:04;33.20;99.90
25918;DHT22;13899;51.174;4.456;2022-08-03T10:31:37;33.60;99.90
25918;DHT22;13899;51.174;4.456;2022-08-03T10:34:08;32.90;99.90
25918;DHT22;13899;51.174;4.456;2022-08-03T10:36:39;34.50;99.90
25918;DHT22;13899;51.174;4.456;2022-08-03T10:39:05;34.80;99.90
25918;DHT22;13899;51.174;4.456;2022-08-03T10:41:36;35.30;99.50
25918;DHT22;13899;51.174;4.456;2022-08-03T10:44:06;35.90;97.80
25918;DHT22;13899;51.174;4.456;2022-08-03T10:46:33;37.20;94.90
25918;DHT22;13899;51.174;4.456;2022-08-03T10:49:00;35.50;94.80
25918;DHT22;13899;51.174;4.456;2022-08-03T10:51:26;35.80;95.80
25918;DHT22;13899;51.174;4.456;2022-08-03T10:53:57;35.80;94.80
25918;DHT22;13899;51.174;4.456;2022-08-03T10:59:16;35.30;94.10
25918;DHT22;13899;51.174;4.456;2022-08-03T11:01:50;34.20;94.40
25918;DHT22;13899;51.174;4.456;2022-08-03T11:04:17;34.70;95.10
25918;DHT22;13899;51.174;4.456;2022-08-03T11:06:44;36.10;92.90
25918;DHT22;13899;51.174;4.456;2022-08-03T11:11:37;34.70;93.40
25918;DHT22;13899;51.174;4.456;2022-08-03T11:14:04;34.50;93.70
25918;DHT22;13899;51.174;4.456;2022-08-03T11:16:34;35.30;93.00
25918;DHT22;13899;51.174;4.456;2022-08-03T11:19:05;35.00;93.60
25918;DHT22;13899;51.174;4.456;2022-08-03T11:30:08;39.60;81.60
25918;DHT22;13899;51.174;4.456;2022-08-03T11:48:27;38.00;78.60
25918;DHT22;13899;51.174;4.456;2022-08-03T11:50:53;38.00;75.80
25918;DHT22;13899;51.174;4.456;2022-08-03T11:53:19;36.90;77.40
25918;DHT22;13899;51.174;4.456;2022-08-03T11:55:45;37.10;76.90
25918;DHT22;13899;51.174;4.456;2022-08-03T11:58:22;35.40;80.80
25918;DHT22;13899;51.174;4.456;2022-08-03T12:01:02;35.00;83.10
25918;DHT22;13899;51.174;4.456;2022-08-03T12:03:32;36.90;80.20
25918;DHT22;13899;51.174;4.456;2022-08-03T12:05:58;38.90;75.50
25918;DHT22;13899;51.174;4.456;2022-08-03T12:10:53;39.20;73.50
25918;DHT22;13899;51.174;4.456;2022-08-03T12:13:20;40.60;69.10
25918;DHT22;13899;51.174;4.456;2022-08-03T12:15:51;39.70;68.50
25918;DHT22;13899;51.174;4.456;2022-08-03T12:18:18;40.40;67.20
25918;DHT22;13899;51.174;4.456;2022-08-03T12:20:46;40.70;65.10
25918;DHT22;13899;51.174;4.456;2022-08-03T12:23:12;38.00;66.70
25918;DHT22;13899;51.174;4.456;2022-08-03T12:25:40;37.50;71.60
25918;DHT22;13899;51.174;4.456;2022-08-03T12:28:17;36.60;71.40
25918;DHT22;13899;51.174;4.456;2022-08-03T12:30:45;36.50;72.30
25918;DHT22;13899;51.174;4.456;2022-08-03T12:33:20;38.70;68.40
25918;DHT22;13899;51.174;4.456;2022-08-03T12:36:01;37.50;69.10
25918;DHT22;13899;51.174;4.456;2022-08-03T12:38:28;38.50;68.30
25918;DHT22;13899;51.174;4.456;2022-08-03T12:41:01;39.10;68.00
25918;DHT22;13899;51.174;4.456;2022-08-03T12:43:27;39.30;66.10
25918;DHT22;13899;51.174;4.456;2022-08-03T12:46:13;37.60;68.00
25918;DHT22;13899;51.174;4.456;2022-08-03T12:51:24;33.70;76.70
25918;DHT22;13899;51.174;4.456;2022-08-03T12:53:53;35.50;77.10
25918;DHT22;13899;51.174;4.456;2022-08-03T12:56:19;37.10;70.90
25918;DHT22;13899;51.174;4.456;2022-08-03T12:58:45;37.70;69.30
25918;DHT22;13899;51.174;4.456;2022-08-03T13:01:12;37.90;68.50
25918;DHT22;13899;51.174;4.456;2022-08-03T13:03:43;37.80;68.40
25918;DHT22;13899;51.174;4.456;2022-08-03T13:06:13;39.20;66.00
25918;DHT22;13899;51.174;4.456;2022-08-03T13:08:40;37.60;66.10
25918;DHT22;13899;51.174;4.456;2022-08-03T13:13:44;37.20;67.20
25918;DHT22;13899;51.174;4.456;2022-08-03T13:16:10;37.30;68.90
25918;DHT22;13899;51.174;4.456;2022-08-03T13:18:36;36.50;68.90
25918;DHT22;13899;51.174;4.456;2022-08-03T13:21:01;35.80;69.90
25918;DHT22;13899;51.174;4.456;2022-08-03T13:23:27;35.50;71.60
25918;DHT22;13899;51.174;4.456;2022-08-03T13:25:52;35.30;71.80
25918;DHT22;13899;51.174;4.456;2022-08-03T13:28:18;35.70;72.60
25918;DHT22;13899;51.174;4.456;2022-08-03T13:30:45;37.70;68.20
25918;DHT22;13899;51.174;4.456;2022-08-03T13:33:11;39.60;64.50
25918;DHT22;13899;51.174;4.456;2022-08-03T13:35:36;38.90;65.50
25918;DHT22;13899;51.174;4.456;2022-08-03T13:38:02;41.00;62.70
25918;DHT22;13899;51.174;4.456;2022-08-03T13:40:28;39.90;61.30
25918;DHT22;13899;51.174;4.456;2022-08-03T13:42:56;40.50;61.80
25918;DHT22;13899;51.174;4.456;2022-08-03T13:45:22;41.50;59.40
25918;DHT22;13899;51.174;4.456;2022-08-03T13:47:49;42.00;59.50
25918;DHT22;13899;51.174;4.456;2022-08-03T13:50:15;42.90;57.10
25918;DHT22;13899;51.174;4.456;2022-08-03T13:52:40;41.30;57.00
25918;DHT22;13899;51.174;4.456;2022-08-03T13:55:07;42.20;57.60
25918;DHT22;13899;51.174;4.456;2022-08-03T13:57:34;43.90;55.20
25918;DHT22;13899;51.174;4.456;2022-08-03T14:00:00;44.60;53.00
25918;DHT22;13899;51.174;4.456;2022-08-03T14:02:26;44.40;52.70
25918;DHT22;13899;51.174;4.456;2022-08-03T14:04:52;43.20;53.10
25918;DHT22;13899;51.174;4.456;2022-08-03T14:07:19;41.20;54.50
25918;DHT22;13899;51.174;4.456;2022-08-03T14:09:44;39.00;56.40
25918;DHT22;13899;51.174;4.456;2022-08-03T14:12:10;37.90;59.10
25918;DHT22;13899;51.174;4.456;2022-08-03T14:14:35;36.40;61.00
25918;DHT22;13899;51.174;4.456;2022-08-03T14:17:01;37.80;59.90
25918;DHT22;13899;51.174;4.456;2022-08-03T14:19:27;40.30;57.70
25918;DHT22;13899;51.174;4.456;2022-08-03T14:21:52;41.50;55.90
25918;DHT22;13899;51.174;4.456;2022-08-03T14:24:18;43.60;53.00
25918;DHT22;13899;51.174;4.456;2022-08-03T14:26:43;42.70;53.10
25918;DHT22;13899;51.174;4.456;2022-08-03T14:29:09;42.10;53.20
25918;DHT22;13899;51.174;4.456;2022-08-03T14:31:36;40.80;54.10
25918;DHT22;13899;51.174;4.456;2022-08-03T14:34:01;40.40;54.00
25918;DHT22;13899;51.174;4.456;2022-08-03T14:36:27;41.80;53.70
25918;DHT22;13899;51.174;4.456;2022-08-03T14:38:53;41.80;52.40
25918;DHT22;13899;51.174;4.456;2022-08-03T14:41:18;41.20;53.40
25918;DHT22;13899;51.174;4.456;2022-08-03T14:43:44;40.60;54.50
25918;DHT22;13899;51.174;4.456;2022-08-03T14:46:10;42.20;53.90
25918;DHT22;13899;51.174;4.456;2022-08-03T14:48:35;43.50;51.70
25918;DHT22;13899;51.174;4.456;2022-08-03T14:51:01;43.70;51.20
25918;DHT22;13899;51.174;4.456;2022-08-03T14:53:27;43.50;50.70
25918;DHT22;13899;51.174;4.456;2022-08-03T14:55:53;42.00;51.20
25918;DHT22;13899;51.174;4.456;2022-08-03T14:58:23;41.10;52.50
25918;DHT22;13899;51.174;4.456;2022-08-03T15:00:50;40.10;52.60
25918;DHT22;13899;51.174;4.456;2022-08-03T15:03:17;37.70;55.00
25918;DHT22;13899;51.174;4.456;2022-08-03T15:05:45;36.50;57.00
25918;DHT22;13899;51.174;4.456;2022-08-03T15:08:11;36.00;57.60
25918;DHT22;13899;51.174;4.456;2022-08-03T15:10:37;35.10;59.00
25918;DHT22;13899;51.174;4.456;2022-08-03T15:13:02;34.60;59.90
25918;DHT22;13899;51.174;4.456;2022-08-03T15:15:28;35.00;60.60
25918;DHT22;13899;51.174;4.456;2022-08-03T15:17:54;35.50;59.80
25918;DHT22;13899;51.174;4.456;2022-08-03T15:20:20;35.80;59.40
25918;DHT22;13899;51.174;4.456;2022-08-03T15:22:46;36.00;58.90
25918;DHT22;13899;51.174;4.456;2022-08-03T15:25:11;35.10;59.30
25918;DHT22;13899;51.174;4.456;2022-08-03T15:27:37;34.60;60.10
25918;DHT22;13899;51.174;4.456;2022-08-03T15:30:03;34.10;61.60
25918;DHT22;13899;51.174;4.456;2022-08-03T15:32:31;34.20;61.30
25918;DHT22;13899;51.174;4.456;2022-08-03T15:34:57;34.30;62.10
25918;DHT22;13899;51.174;4.456;2022-08-03T15:37:23;34.60;62.20
25918;DHT22;13899;51.174;4.456;2022-08-03T15:39:50;34.90;62.20
25918;DHT22;13899;51.174;4.456;2022-08-03T15:42:15;34.30;62.30
25918;DHT22;13899;51.174;4.456;2022-08-03T15:44:41;34.30;62.70
25918;DHT22;13899;51.174;4.456;2022-08-03T15:47:06;34.20;61.70
25918;DHT22;13899;51.174;4.456;2022-08-03T15:49:32;34.20;62.20
25918;DHT22;13899;51.174;4.456;2022-08-03T15:51:58;34.60;62.10
25918;DHT22;13899;51.174;4.456;2022-08-03T15:54:23;34.60;60.20
25918;DHT22;13899;51.174;4.456;2022-08-03T15:56:49;34.40;61.00
25918;DHT22;13899;51.174;4.456;2022-08-03T15:59:15;34.70;61.10
25918;DHT22;13899;51.174;4.456;2022-08-03T16:01:40;34.70;60.90
25918;DHT22;13899;51.174;4.456;2022-08-03T16:04:06;34.80;59.80
25918;DHT22;13899;51.174;4.456;2022-08-03T16:06:32;34.40;60.70
25918;DHT22;13899;51.174;4.456;2022-08-03T16:08:57;34.60;60.80
25918;DHT22;13899;51.174;4.456;2022-08-03T16:11:23;34.20;61.50
25918;DHT22;13899;51.174;4.456;2022-08-03T16:13:49;34.50;62.10
25918;DHT22;13899;51.174;4.456;2022-08-03T16:16:14;34.60;61.40
25918;DHT22;13899;51.174;4.456;2022-08-03T16:18:41;34.20;61.30
25918;DHT22;13899;51.174;4.456;2022-08-03T16:21:07;34.20;61.50
25918;DHT22;13899;51.174;4.456;2022-08-03T16:23:32;34.70;61.10
25918;DHT22;13899;51.174;4.456;2022-08-03T16:26:00;35.00;60.00
25918;DHT22;13899;51.174;4.456;2022-08-03T16:28:26;35.00;59.40
25918;DHT22;13899;51.174;4.456;2022-08-03T16:30:51;34.90;59.90
25918;DHT22;13899;51.174;4.456;2022-08-03T16:33:17;35.20;60.50
25918;DHT22;13899;51.174;4.456;2022-08-03T16:35:43;35.20;59.40
25918;DHT22;13899;51.174;4.456;2022-08-03T16:38:08;35.20;59.10